sensor_id;sensor_type;location;lat;lon;timestamp;temperature;humidity
65470;DHT22;52067;50.710;14.492;2022-07-10T00:01:20;13.22;88.24
65470;DHT22;52067;50.710;14.492;2022-07-10T00:03:45;13.23;87.68
65470;DHT22;52067;50.710;14.492;2022-07-10T00:06:11;13.30;88.08
65470;DHT22;52067;50.710;14.492;2022-07-10T00:08:37;13.30;87.61
65470;DHT22;52067;50.710;14.492;2022-07-10T00:11:02;13.44;87.78
65470;DHT22;52067;50.710;14.492;2022-07-10T00:13:27;13.35;88.04
65470;DHT22;52067;50.710;14.492;2022-07-10T00:15:53;13.36;87.55
65470;DHT22;52067;50.710;14.492;2022-07-10T00:18:18;13.33;87.44
65470;DHT22;52067;50.710;14.492;2022-07-10T00:20:44;13.25;87.24
65470;DHT22;52067;50.710;14.492;2022-07-10T00:23:09;13.14;87.37
65470;DHT22;52067;50.710;14.492;2022-07-10T00:25:34;12.98;87.91
65470;DHT22;52067;50.710;14.492;2022-07-10T00:28:00;13.12;87.12
65470;DHT22;52067;50.710;14.492;2022-07-10T00:30:25;13.04;86.97
65470;DHT22;52067;50.710;14.492;2022-07-10T00:32:50;13.08;86.88
65470;DHT22;52067;50.710;14.492;2022-07-10T00:35:16;13.02;86.85
65470;DHT22;52067;50.710;14.492;2022-07-10T00:37:41;12.95;87.03
65470;DHT22;52067;50.710;14.492;2022-07-10T00:40:07;13.02;86.75
65470;DHT22;52067;50.710;14.492;2022-07-10T00:42:32;12.98;86.57
65470;DHT22;52067;50.710;14.492;2022-07-10T00:44:58;13.05;85.35
65470;DHT22;52067;50.710;14.492;2022-07-10T00:47:24;13.25;84.78
65470;DHT22;52067;50.710;14.492;2022-07-10T00:49:49;13.43;84.60
65470;DHT22;52067;50.710;14.492;2022-07-10T00:52:16;13.43;84.15
65470;DHT22;52067;50.710;14.492;2022-07-10T00:54:45;13.32;84.23
65470;DHT22;52067;50.710;14.492;2022-07-10T00:57:13;13.19;85.11
65470;DHT22;52067;50.710;14.492;2022-07-10T00:59:43;13.26;83.83
65470;DHT22;52067;50.710;14.492;2022-07-10T01:02:09;13.27;83.82
65470;DHT22;52067;50.710;14.492;2022-07-10T01:04:34;13.38;82.89
65470;DHT22;52067;50.710;14.492;2022-07-10T01:07:00;13.36;83.23
65470;DHT22;52067;50.710;14.492;2022-07-10T01:09:26;13.33;83.71
65470;DHT22;52067;50.710;14.492;2022-07-10T01:11:53;13.44;81.87
65470;DHT22;52067;50.710;14.492;2022-07-10T01:14:19;13.30;83.15
65470;DHT22;52067;50.710;14.492;2022-07-10T01:16:45;13.47;82.24
65470;DHT22;52067;50.710;14.492;2022-07-10T01:19:11;13.54;81.75
65470;DHT22;52067;50.710;14.492;2022-07-10T01:21:37;13.60;81.75
65470;DHT22;52067;50.710;14.492;2022-07-10T01:24:10;13.66;80.90
65470;DHT22;52067;50.710;14.492;2022-07-10T01:26:37;13.43;80.61
65470;DHT22;52067;50.710;14.492;2022-07-10T01:29:06;13.22;82.59
65470;DHT22;52067;50.710;14.492;2022-07-10T01:31:32;13.02;83.08
65470;DHT22;52067;50.710;14.492;2022-07-10T01:33:59;13.18;83.56
65470;DHT22;52067;50.710;14.492;2022-07-10T01:36:27;13.23;82.62
65470;DHT22;52067;50.710;14.492;2022-07-10T01:38:54;13.39;81.06
65470;DHT22;52067;50.710;14.492;2022-07-10T01:41:20;13.52;81.12
65470;DHT22;52067;50.710;14.492;2022-07-10T01:43:45;13.30;83.05
65470;DHT22;52067;50.710;14.492;2022-07-10T01:46:13;13.39;83.47
65470;DHT22;52067;50.710;14.492;2022-07-10T01:48:38;13.22;83.44
65470;DHT22;52067;50.710;14.492;2022-07-10T01:51:05;13.29;80.79
65470;DHT22;52067;50.710;14.492;2022-07-10T01:53:31;13.47;81.61
65470;DHT22;52067;50.710;14.492;2022-07-10T01:55:57;13.54;79.41
65470;DHT22;52067;50.710;14.492;2022-07-10T01:58:22;13.50;80.19
65470;DHT22;52067;50.710;14.492;2022-07-10T02:00:48;13.59;80.95
65470;DHT22;52067;50.710;14.492;2022-07-10T02:03:13;13.40;82.11
65470;DHT22;52067;50.710;14.492;2022-07-10T02:05:57;13.44;81.47
65470;DHT22;52067;50.710;14.492;2022-07-10T02:08:23;13.54;82.40
65470;DHT22;52067;50.710;14.492;2022-07-10T02:10:48;13.30;81.78
65470;DHT22;52067;50.710;14.492;2022-07-10T02:13:14;13.22;82.09
65470;DHT22;52067;50.710;14.492;2022-07-10T02:15:42;13.01;81.86
65470;DHT22;52067;50.710;14.492;2022-07-10T02:18:08;12.91;80.97
65470;DHT22;52067;50.710;14.492;2022-07-10T02:20:33;12.84;81.58
65470;DHT22;52067;50.710;14.492;2022-07-10T02:23:00;12.64;82.12
65470;DHT22;52067;50.710;14.492;2022-07-10T02:25:26;12.54;82.34
65470;DHT22;52067;50.710;14.492;2022-07-10T02:27:51;12.61;81.83
65470;DHT22;52067;50.710;14.492;2022-07-10T02:30:17;12.36;83.08
65470;DHT22;52067;50.710;14.492;2022-07-10T02:32:42;12.17;83.48
65470;DHT22;52067;50.710;14.492;2022-07-10T02:35:08;12.09;83.54
65470;DHT22;52067;50.710;14.492;2022-07-10T02:37:33;12.12;82.59
65470;DHT22;52067;50.710;14.492;2022-07-10T02:39:59;12.12;82.53
65470;DHT22;52067;50.710;14.492;2022-07-10T02:42:24;12.20;81.88
65470;DHT22;52067;50.710;14.492;2022-07-10T02:44:49;12.20;81.65
65470;DHT22;52067;50.710;14.492;2022-07-10T02:47:15;12.07;81.77
65470;DHT22;52067;50.710;14.492;2022-07-10T02:49:40;12.07;82.00
65470;DHT22;52067;50.710;14.492;2022-07-10T02:52:05;11.92;82.01
65470;DHT22;52067;50.710;14.492;2022-07-10T02:54:31;11.85;81.63
65470;DHT22;52067;50.710;14.492;2022-07-10T02:56:56;11.81;82.20
65470;DHT22;52067;50.710;14.492;2022-07-10T02:59:21;11.78;82.55
65470;DHT22;52067;50.710;14.492;2022-07-10T03:01:47;11.71;82.61
65470;DHT22;52067;50.710;14.492;2022-07-10T03:04:12;11.67;82.51
65470;DHT22;52067;50.710;14.492;2022-07-10T03:06:37;11.74;81.69
65470;DHT22;52067;50.710;14.492;2022-07-10T03:09:03;11.71;82.19
65470;DHT22;52067;50.710;14.492;2022-07-10T03:11:28;11.79;82.01
65470;DHT22;52067;50.710;14.492;2022-07-10T03:13:54;11.81;81.15
65470;DHT22;52067;50.710;14.492;2022-07-10T03:16:19;11.68;82.57
65470;DHT22;52067;50.710;14.492;2022-07-10T03:18:45;11.88;82.24
65470;DHT22;52067;50.710;14.492;2022-07-10T03:21:10;11.99;82.50
65470;DHT22;52067;50.710;14.492;2022-07-10T03:23:36;12.00;82.41
65470;DHT22;52067;50.710;14.492;2022-07-10T03:26:01;12.07;80.94
65470;DHT22;52067;50.710;14.492;2022-07-10T03:28:27;12.05;80.56
65470;DHT22;52067;50.710;14.492;2022-07-10T03:30:52;11.93;80.80
65470;DHT22;52067;50.710;14.492;2022-07-10T03:33:17;12.05;80.51
65470;DHT22;52067;50.710;14.492;2022-07-10T03:35:43;12.07;81.44
65470;DHT22;52067;50.710;14.492;2022-07-10T03:38:08;12.10;80.52
65470;DHT22;52067;50.710;14.492;2022-07-10T03:40:34;12.13;80.07
65470;DHT22;52067;50.710;14.492;2022-07-10T03:42:59;12.30;79.88
65470;DHT22;52067;50.710;14.492;2022-07-10T03:45:24;12.30;80.46
65470;DHT22;52067;50.710;14.492;2022-07-10T03:47:50;12.47;79.91
65470;DHT22;52067;50.710;14.492;2022-07-10T03:50:16;12.40;80.28
65470;DHT22;52067;50.710;14.492;2022-07-10T03:52:41;12.51;77.76
65470;DHT22;52067;50.710;14.492;2022-07-10T03:55:07;12.47;78.25
65470;DHT22;52067;50.710;14.492;2022-07-10T03:57:32;12.36;79.43
65470;DHT22;52067;50.710;14.492;2022-07-10T04:00:16;12.47;79.14
65470;DHT22;52067;50.710;14.492;2022-07-10T04:02:41;12.34;78.22
65470;DHT22;52067;50.710;14.492;2022-07-10T04:05:08;12.38;79.01
65470;DHT22;52067;50.710;14.492;2022-07-10T04:07:37;12.40;79.26
65470;DHT22;52067;50.710;14.492;2022-07-10T04:10:03;12.56;77.82
65470;DHT22;52067;50.710;14.492;2022-07-10T04:12:29;12.33;79.56
65470;DHT22;52067;50.710;14.492;2022-07-10T04:14:54;12.58;78.22
65470;DHT22;52067;50.710;14.492;2022-07-10T04:17:20;12.73;77.87
65470;DHT22;52067;50.710;14.492;2022-07-10T04:19:45;12.71;77.04
65470;DHT22;52067;50.710;14.492;2022-07-10T04:22:11;12.71;76.14
65470;DHT22;52067;50.710;14.492;2022-07-10T04:24:37;12.54;77.01
65470;DHT22;52067;50.710;14.492;2022-07-10T04:27:02;12.65;76.03
65470;DHT22;52067;50.710;14.492;2022-07-10T04:29:28;12.74;75.55
65470;DHT22;52067;50.710;14.492;2022-07-10T04:31:53;12.77;76.64
65470;DHT22;52067;50.710;14.492;2022-07-10T04:34:19;12.92;75.82
65470;DHT22;52067;50.710;14.492;2022-07-10T04:36:45;12.71;75.88
65470;DHT22;52067;50.710;14.492;2022-07-10T04:39:10;12.94;76.04
65470;DHT22;52067;50.710;14.492;2022-07-10T04:41:35;12.84;78.01
65470;DHT22;52067;50.710;14.492;2022-07-10T04:44:01;12.81;76.18
65470;DHT22;52067;50.710;14.492;2022-07-10T04:46:26;12.84;76.60
65470;DHT22;52067;50.710;14.492;2022-07-10T04:48:52;12.60;78.01
65470;DHT22;52067;50.710;14.492;2022-07-10T04:51:17;12.67;78.24
65470;DHT22;52067;50.710;14.492;2022-07-10T04:53:43;12.77;76.84
65470;DHT22;52067;50.710;14.492;2022-07-10T04:56:09;12.85;75.10
65470;DHT22;52067;50.710;14.492;2022-07-10T04:58:34;12.95;76.76
65470;DHT22;52067;50.710;14.492;2022-07-10T05:01:00;12.88;76.19
65470;DHT22;52067;50.710;14.492;2022-07-10T05:03:26;12.91;77.20
65470;DHT22;52067;50.710;14.492;2022-07-10T05:05:52;12.88;77.47
65470;DHT22;52067;50.710;14.492;2022-07-10T05:08:18;12.91;77.98
65470;DHT22;52067;50.710;14.492;2022-07-10T05:10:43;13.04;77.37
65470;DHT22;52067;50.710;14.492;2022-07-10T05:13:10;12.88;78.88
65470;DHT22;52067;50.710;14.492;2022-07-10T05:15:37;13.01;77.82
65470;DHT22;52067;50.710;14.492;2022-07-10T05:18:02;13.09;76.39
65470;DHT22;52067;50.710;14.492;2022-07-10T05:20:28;13.05;76.95
65470;DHT22;52067;50.710;14.492;2022-07-10T05:22:53;13.11;77.02
65470;DHT22;52067;50.710;14.492;2022-07-10T05:25:19;13.15;76.33
65470;DHT22;52067;50.710;14.492;2022-07-10T05:27:44;12.96;77.66
65470;DHT22;52067;50.710;14.492;2022-07-10T05:30:10;12.84;78.30
65470;DHT22;52067;50.710;14.492;2022-07-10T05:32:45;12.74;78.44
65470;DHT22;52067;50.710;14.492;2022-07-10T05:35:11;12.88;77.13
65470;DHT22;52067;50.710;14.492;2022-07-10T05:37:37;12.91;78.47
65470;DHT22;52067;50.710;14.492;2022-07-10T05:40:02;13.12;76.66
65470;DHT22;52067;50.710;14.492;2022-07-10T05:42:28;13.20;76.26
65470;DHT22;52067;50.710;14.492;2022-07-10T05:44:53;13.22;74.80
65470;DHT22;52067;50.710;14.492;2022-07-10T05:47:19;13.15;75.96
65470;DHT22;52067;50.710;14.492;2022-07-10T05:49:44;13.19;76.95
65470;DHT22;52067;50.710;14.492;2022-07-10T05:52:09;13.22;75.73
65470;DHT22;52067;50.710;14.492;2022-07-10T05:54:35;13.14;74.08
65470;DHT22;52067;50.710;14.492;2022-07-10T05:57:00;13.26;74.55
65470;DHT22;52067;50.710;14.492;2022-07-10T05:59:25;13.20;73.87
65470;DHT22;52067;50.710;14.492;2022-07-10T06:01:51;13.19;75.84
65470;DHT22;52067;50.710;14.492;2022-07-10T06:04:16;13.16;75.67
65470;DHT22;52067;50.710;14.492;2022-07-10T06:06:41;13.43;75.21
65470;DHT22;52067;50.710;14.492;2022-07-10T06:09:07;13.40;76.74
65470;DHT22;52067;50.710;14.492;2022-07-10T06:11:32;13.36;74.97
65470;DHT22;52067;50.710;14.492;2022-07-10T06:13:57;12.99;76.67
65470;DHT22;52067;50.710;14.492;2022-07-10T06:16:23;13.38;73.10
65470;DHT22;52067;50.710;14.492;2022-07-10T06:18:48;13.29;76.18
65470;DHT22;52067;50.710;14.492;2022-07-10T06:21:14;13.56;74.51
65470;DHT22;52067;50.710;14.492;2022-07-10T06:23:39;13.56;74.25
65470;DHT22;52067;50.710;14.492;2022-07-10T06:26:04;13.85;73.25
65470;DHT22;52067;50.710;14.492;2022-07-10T06:28:30;13.42;75.93
65470;DHT22;52067;50.710;14.492;2022-07-10T06:30:55;13.84;72.90
65470;DHT22;52067;50.710;14.492;2022-07-10T06:33:21;13.57;74.84
65470;DHT22;52067;50.710;14.492;2022-07-10T06:35:46;13.70;71.30
65470;DHT22;52067;50.710;14.492;2022-07-10T06:38:11;13.75;72.44
65470;DHT22;52067;50.710;14.492;2022-07-10T06:40:37;14.05;71.09
65470;DHT22;52067;50.710;14.492;2022-07-10T06:43:03;13.77;71.81
65470;DHT22;52067;50.710;14.492;2022-07-10T06:45:28;13.74;71.37
65470;DHT22;52067;50.710;14.492;2022-07-10T06:47:54;13.85;71.21
65470;DHT22;52067;50.710;14.492;2022-07-10T06:50:32;13.88;71.27
65470;DHT22;52067;50.710;14.492;2022-07-10T06:53:00;14.04;71.68
65470;DHT22;52067;50.710;14.492;2022-07-10T06:55:27;14.31;70.28
65470;DHT22;52067;50.710;14.492;2022-07-10T06:57:53;14.42;70.21
65470;DHT22;52067;50.710;14.492;2022-07-10T07:00:18;14.24;69.95
65470;DHT22;52067;50.710;14.492;2022-07-10T07:02:44;14.20;69.54
65470;DHT22;52067;50.710;14.492;2022-07-10T07:05:10;13.80;71.76
65470;DHT22;52067;50.710;14.492;2022-07-10T07:07:36;14.21;69.49
65470;DHT22;52067;50.710;14.492;2022-07-10T07:10:03;14.59;70.26
65470;DHT22;52067;50.710;14.492;2022-07-10T07:12:28;14.43;70.87
65470;DHT22;52067;50.710;14.492;2022-07-10T07:14:54;14.65;66.71
65470;DHT22;52067;50.710;14.492;2022-07-10T07:17:19;14.38;68.51
65470;DHT22;52067;50.710;14.492;2022-07-10T07:19:50;14.17;68.45
65470;DHT22;52067;50.710;14.492;2022-07-10T07:22:35;14.32;67.82
65470;DHT22;52067;50.710;14.492;2022-07-10T07:25:19;13.91;69.97
65470;DHT22;52067;50.710;14.492;2022-07-10T07:27:45;14.15;70.23
65470;DHT22;52067;50.710;14.492;2022-07-10T07:30:12;14.46;68.96
65470;DHT22;52067;50.710;14.492;2022-07-10T07:32:41;14.49;69.75
65470;DHT22;52067;50.710;14.492;2022-07-10T07:35:07;14.65;69.63
65470;DHT22;52067;50.710;14.492;2022-07-10T07:40:06;14.59;67.96
65470;DHT22;52067;50.710;14.492;2022-07-10T07:42:32;14.31;67.97
65470;DHT22;52067;50.710;14.492;2022-07-10T07:44:57;13.91;72.53
65470;DHT22;52067;50.710;14.492;2022-07-10T07:47:23;14.17;69.30
65470;DHT22;52067;50.710;14.492;2022-07-10T07:49:48;14.14;70.31
65470;DHT22;52067;50.710;14.492;2022-07-10T07:52:13;14.43;67.27
65470;DHT22;52067;50.710;14.492;2022-07-10T07:54:39;14.76;67.75
65470;DHT22;52067;50.710;14.492;2022-07-10T07:57:05;14.79;69.91
65470;DHT22;52067;50.710;14.492;2022-07-10T07:59:31;15.32;68.21
65470;DHT22;52067;50.710;14.492;2022-07-10T08:01:56;15.52;69.11
65470;DHT22;52067;50.710;14.492;2022-07-10T08:04:21;15.42;67.38
65470;DHT22;52067;50.710;14.492;2022-07-10T08:06:47;15.85;65.69
65470;DHT22;52067;50.710;14.492;2022-07-10T08:09:12;15.88;63.53
65470;DHT22;52067;50.710;14.492;2022-07-10T08:11:38;15.82;66.00
65470;DHT22;52067;50.710;14.492;2022-07-10T08:14:03;16.33;63.68
65470;DHT22;52067;50.710;14.492;2022-07-10T08:16:28;15.66;63.49
65470;DHT22;52067;50.710;14.492;2022-07-10T08:18:54;15.69;61.58
65470;DHT22;52067;50.710;14.492;2022-07-10T08:21:19;15.06;64.07
65470;DHT22;52067;50.710;14.492;2022-07-10T08:23:45;15.18;64.84
65470;DHT22;52067;50.710;14.492;2022-07-10T08:26:11;14.59;67.23
65470;DHT22;52067;50.710;14.492;2022-07-10T08:28:36;14.56;67.28
65470;DHT22;52067;50.710;14.492;2022-07-10T08:31:01;14.52;67.89
65470;DHT22;52067;50.710;14.492;2022-07-10T08:33:27;14.51;66.39
65470;DHT22;52067;50.710;14.492;2022-07-10T08:35:53;14.35;66.80
65470;DHT22;52067;50.710;14.492;2022-07-10T08:38:24;14.32;66.95
65470;DHT22;52067;50.710;14.492;2022-07-10T08:40:49;14.58;66.77
65470;DHT22;52067;50.710;14.492;2022-07-10T08:43:16;14.63;70.08
65470;DHT22;52067;50.710;14.492;2022-07-10T08:45:42;14.86;68.33
65470;DHT22;52067;50.710;14.492;2022-07-10T08:48:09;15.39;64.39
65470;DHT22;52067;50.710;14.492;2022-07-10T08:50:38;15.03;65.03
65470;DHT22;52067;50.710;14.492;2022-07-10T08:53:16;15.58;64.23
65470;DHT22;52067;50.710;14.492;2022-07-10T08:55:44;15.30;65.85
65470;DHT22;52067;50.710;14.492;2022-07-10T08:58:10;15.59;66.98
65470;DHT22;52067;50.710;14.492;2022-07-10T09:00:36;15.73;64.37
65470;DHT22;52067;50.710;14.492;2022-07-10T09:03:02;15.59;64.66
65470;DHT22;52067;50.710;14.492;2022-07-10T09:05:28;15.38;67.42
65470;DHT22;52067;50.710;14.492;2022-07-10T09:07:54;15.70;64.37
65470;DHT22;52067;50.710;14.492;2022-07-10T09:10:21;15.97;63.90
65470;DHT22;52067;50.710;14.492;2022-07-10T09:12:57;15.72;62.12
65470;DHT22;52067;50.710;14.492;2022-07-10T09:15:29;15.30;63.81
65470;DHT22;52067;50.710;14.492;2022-07-10T09:17:59;15.73;61.77
65470;DHT22;52067;50.710;14.492;2022-07-10T09:20:33;15.54;63.54
65470;DHT22;52067;50.710;14.492;2022-07-10T09:23:17;15.51;65.01
65470;DHT22;52067;50.710;14.492;2022-07-10T09:25:44;15.28;64.38
65470;DHT22;52067;50.710;14.492;2022-07-10T09:28:09;15.41;63.18
65470;DHT22;52067;50.710;14.492;2022-07-10T09:30:37;15.68;64.85
65470;DHT22;52067;50.710;14.492;2022-07-10T09:36:10;15.68;60.65
65470;DHT22;52067;50.710;14.492;2022-07-10T09:41:25;16.20;59.84
65470;DHT22;52067;50.710;14.492;2022-07-10T09:43:56;16.91;58.94
65470;DHT22;52067;50.710;14.492;2022-07-10T09:46:28;16.60;58.18
65470;DHT22;52067;50.710;14.492;2022-07-10T09:49:06;16.24;61.75
65470;DHT22;52067;50.710;14.492;2022-07-10T09:51:42;17.29;56.01
65470;DHT22;52067;50.710;14.492;2022-07-10T09:54:09;16.51;58.35
65470;DHT22;52067;50.710;14.492;2022-07-10T09:59:17;17.23;54.43
65470;DHT22;52067;50.710;14.492;2022-07-10T10:01:50;16.82;58.00
65470;DHT22;52067;50.710;14.492;2022-07-10T10:04:20;16.67;55.68
65470;DHT22;52067;50.710;14.492;2022-07-10T10:06:54;16.41;56.15
65470;DHT22;52067;50.710;14.492;2022-07-10T10:09:26;16.43;55.68
65470;DHT22;52067;50.710;14.492;2022-07-10T10:11:59;16.03;58.23
65470;DHT22;52067;50.710;14.492;2022-07-10T10:14:25;16.18;57.96
65470;DHT22;52067;50.710;14.492;2022-07-10T10:16:54;16.30;57.08
65470;DHT22;52067;50.710;14.492;2022-07-10T10:19:22;16.36;58.73
65470;DHT22;52067;50.710;14.492;2022-07-10T10:22:07;16.94;55.64
65470;DHT22;52067;50.710;14.492;2022-07-10T10:24:33;16.55;58.65
65470;DHT22;52067;50.710;14.492;2022-07-10T10:26:59;16.89;59.88
65470;DHT22;52067;50.710;14.492;2022-07-10T10:29:25;16.84;56.72
65470;DHT22;52067;50.710;14.492;2022-07-10T10:31:51;16.21;61.86
65470;DHT22;52067;50.710;14.492;2022-07-10T10:34:46;16.57;58.04
65470;DHT22;52067;50.710;14.492;2022-07-10T10:39:55;16.27;61.38
65470;DHT22;52067;50.710;14.492;2022-07-10T10:48:10;17.32;55.73
65470;DHT22;52067;50.710;14.492;2022-07-10T10:50:51;17.32;55.52
65470;DHT22;52067;50.710;14.492;2022-07-10T10:58:29;17.36;55.97
65470;DHT22;52067;50.710;14.492;2022-07-10T11:01:04;17.51;57.24
65470;DHT22;52067;50.710;14.492;2022-07-10T11:03:30;17.26;57.63
65470;DHT22;52067;50.710;14.492;2022-07-10T11:05:56;17.75;54.32
65470;DHT22;52067;50.710;14.492;2022-07-10T11:08:38;17.61;55.64
65470;DHT22;52067;50.710;14.492;2022-07-10T11:13:59;17.46;55.47
65470;DHT22;52067;50.710;14.492;2022-07-10T11:16:27;16.95;57.14
65470;DHT22;52067;50.710;14.492;2022-07-10T11:18:53;16.23;61.67
65470;DHT22;52067;50.710;14.492;2022-07-10T11:21:25;15.99;62.35
65470;DHT22;52067;50.710;14.492;2022-07-10T11:26:52;15.23;60.94
65470;DHT22;52067;50.710;14.492;2022-07-10T11:29:21;15.03;60.15
65470;DHT22;52067;50.710;14.492;2022-07-10T11:31:53;15.18;59.10
65470;DHT22;52067;50.710;14.492;2022-07-10T11:34:20;15.57;59.87
65470;DHT22;52067;50.710;14.492;2022-07-10T11:36:47;16.24;57.75
65470;DHT22;52067;50.710;14.492;2022-07-10T11:39:13;16.40;58.12
65470;DHT22;52067;50.710;14.492;2022-07-10T11:41:42;17.18;57.23
65470;DHT22;52067;50.710;14.492;2022-07-10T11:44:17;16.88;57.93
65470;DHT22;52067;50.710;14.492;2022-07-10T11:46:44;18.31;52.12
65470;DHT22;52067;50.710;14.492;2022-07-10T11:49:11;19.14;49.50
65470;DHT22;52067;50.710;14.492;2022-07-10T11:51:41;19.07;49.25
65470;DHT22;52067;50.710;14.492;2022-07-10T11:54:12;19.45;49.28
65470;DHT22;52067;50.710;14.492;2022-07-10T11:56:40;18.55;52.37
65470;DHT22;52067;50.710;14.492;2022-07-10T11:59:08;18.35;52.68
65470;DHT22;52067;50.710;14.492;2022-07-10T12:01:47;17.81;53.66
65470;DHT22;52067;50.710;14.492;2022-07-10T12:04:14;18.70;51.77
65470;DHT22;52067;50.710;14.492;2022-07-10T12:06:42;17.74;52.05
65470;DHT22;52067;50.710;14.492;2022-07-10T12:09:12;17.97;52.79
65470;DHT22;52067;50.710;14.492;2022-07-10T12:11:39;18.31;52.58
65470;DHT22;52067;50.710;14.492;2022-07-10T12:16:36;17.55;53.33
65470;DHT22;52067;50.710;14.492;2022-07-10T12:19:05;18.18;51.65
65470;DHT22;52067;50.710;14.492;2022-07-10T12:21:31;17.88;53.57
65470;DHT22;52067;50.710;14.492;2022-07-10T12:23:58;17.36;51.98
65470;DHT22;52067;50.710;14.492;2022-07-10T12:26:32;16.69;55.59
65470;DHT22;52067;50.710;14.492;2022-07-10T12:28:57;16.92;57.41
65470;DHT22;52067;50.710;14.492;2022-07-10T12:31:29;16.84;54.67
65470;DHT22;52067;50.710;14.492;2022-07-10T12:33:56;16.41;55.72
65470;DHT22;52067;50.710;14.492;2022-07-10T12:36:41;16.69;56.39
65470;DHT22;52067;50.710;14.492;2022-07-10T12:39:08;16.61;55.24
65470;DHT22;52067;50.710;14.492;2022-07-10T12:41:33;16.92;55.47
65470;DHT22;52067;50.710;14.492;2022-07-10T12:43:58;17.05;54.95
65470;DHT22;52067;50.710;14.492;2022-07-10T12:46:24;17.08;53.70
65470;DHT22;52067;50.710;14.492;2022-07-10T12:49:09;17.50;54.32
65470;DHT22;52067;50.710;14.492;2022-07-10T12:51:46;18.43;51.33
65470;DHT22;52067;50.710;14.492;2022-07-10T12:54:35;18.15;54.80
65470;DHT22;52067;50.710;14.492;2022-07-10T12:57:02;18.08;56.75
65470;DHT22;52067;50.710;14.492;2022-07-10T12:59:32;18.28;52.62
65470;DHT22;52067;50.710;14.492;2022-07-10T13:01:58;18.12;53.25
65470;DHT22;52067;50.710;14.492;2022-07-10T13:04:26;18.61;49.96
65470;DHT22;52067;50.710;14.492;2022-07-10T13:06:52;19.06;49.53
65470;DHT22;52067;50.710;14.492;2022-07-10T13:09:23;18.97;50.46
65470;DHT22;52067;50.710;14.492;2022-07-10T13:11:50;18.05;53.73
65470;DHT22;52067;50.710;14.492;2022-07-10T13:14:15;19.03;51.65
65470;DHT22;52067;50.710;14.492;2022-07-10T13:16:41;18.73;51.84
65470;DHT22;52067;50.710;14.492;2022-07-10T13:19:07;19.28;51.88
65470;DHT22;52067;50.710;14.492;2022-07-10T13:21:32;19.11;51.15
65470;DHT22;52067;50.710;14.492;2022-07-10T13:23:58;18.22;51.31
65470;DHT22;52067;50.710;14.492;2022-07-10T13:26:23;17.61;54.38
65470;DHT22;52067;50.710;14.492;2022-07-10T13:28:49;17.50;55.18
65470;DHT22;52067;50.710;14.492;2022-07-10T13:31:14;16.96;55.09
65470;DHT22;52067;50.710;14.492;2022-07-10T13:33:39;16.99;52.80
65470;DHT22;52067;50.710;14.492;2022-07-10T13:36:05;16.64;57.58
65470;DHT22;52067;50.710;14.492;2022-07-10T13:38:31;17.05;55.87
65470;DHT22;52067;50.710;14.492;2022-07-10T13:40:57;16.33;58.83
65470;DHT22;52067;50.710;14.492;2022-07-10T13:43:23;16.58;57.29
65470;DHT22;52067;50.710;14.492;2022-07-10T13:45:59;17.03;56.19
65470;DHT22;52067;50.710;14.492;2022-07-10T13:48:25;17.03;55.72
65470;DHT22;52067;50.710;14.492;2022-07-10T13:50:51;16.75;59.19
65470;DHT22;52067;50.710;14.492;2022-07-10T13:53:17;17.77;54.10
65470;DHT22;52067;50.710;14.492;2022-07-10T13:55:42;18.35;53.34
65470;DHT22;52067;50.710;14.492;2022-07-10T13:58:09;19.34;50.71
65470;DHT22;52067;50.710;14.492;2022-07-10T14:00:35;19.66;51.45
65470;DHT22;52067;50.710;14.492;2022-07-10T14:03:01;20.14;50.90
65470;DHT22;52067;50.710;14.492;2022-07-10T14:05:26;20.17;48.30
65470;DHT22;52067;50.710;14.492;2022-07-10T14:07:52;21.26;45.77
65470;DHT22;52067;50.710;14.492;2022-07-10T14:10:17;20.30;49.16
65470;DHT22;52067;50.710;14.492;2022-07-10T14:12:43;19.56;50.15
65470;DHT22;52067;50.710;14.492;2022-07-10T14:15:09;22.38;43.50
65470;DHT22;52067;50.710;14.492;2022-07-10T14:17:35;21.84;42.02
65470;DHT22;52067;50.710;14.492;2022-07-10T14:20:00;21.75;47.97
65470;DHT22;52067;50.710;14.492;2022-07-10T14:22:26;24.44;39.50
65470;DHT22;52067;50.710;14.492;2022-07-10T14:24:51;24.25;39.79
65470;DHT22;52067;50.710;14.492;2022-07-10T14:27:19;25.33;37.86
65470;DHT22;52067;50.710;14.492;2022-07-10T14:29:44;24.75;37.51
65470;DHT22;52067;50.710;14.492;2022-07-10T14:32:09;23.17;40.64
65470;DHT22;52067;50.710;14.492;2022-07-10T14:34:35;22.97;40.64
65470;DHT22;52067;50.710;14.492;2022-07-10T14:37:01;21.40;44.95
65470;DHT22;52067;50.710;14.492;2022-07-10T14:39:28;22.73;43.16
65470;DHT22;52067;50.710;14.492;2022-07-10T14:41:53;22.38;41.96
65470;DHT22;52067;50.710;14.492;2022-07-10T14:44:19;20.09;48.89
65470;DHT22;52067;50.710;14.492;2022-07-10T14:46:44;21.24;43.25
65470;DHT22;52067;50.710;14.492;2022-07-10T14:49:09;23.19;39.46
65470;DHT22;52067;50.710;14.492;2022-07-10T14:51:35;22.46;40.30
65470;DHT22;52067;50.710;14.492;2022-07-10T14:54:01;23.01;39.99
65470;DHT22;52067;50.710;14.492;2022-07-10T14:56:26;24.18;38.69
65470;DHT22;52067;50.710;14.492;2022-07-10T14:58:52;22.09;44.67
65470;DHT22;52067;50.710;14.492;2022-07-10T15:01:17;23.12;41.43
65470;DHT22;52067;50.710;14.492;2022-07-10T15:03:43;24.44;38.29
65470;DHT22;52067;50.710;14.492;2022-07-10T15:06:09;23.32;40.48
65470;DHT22;52067;50.710;14.492;2022-07-10T15:08:35;21.55;45.04
65470;DHT22;52067;50.710;14.492;2022-07-10T15:11:00;21.34;43.86
65470;DHT22;52067;50.710;14.492;2022-07-10T15:13:26;21.95;43.03
65470;DHT22;52067;50.710;14.492;2022-07-10T15:15:52;21.70;42.23
65470;DHT22;52067;50.710;14.492;2022-07-10T15:18:18;20.45;45.31
65470;DHT22;52067;50.710;14.492;2022-07-10T15:20:44;21.06;43.69
65470;DHT22;52067;50.710;14.492;2022-07-10T15:23:10;20.74;45.07
65470;DHT22;52067;50.710;14.492;2022-07-10T15:25:35;21.85;41.92
65470;DHT22;52067;50.710;14.492;2022-07-10T15:28:05;20.88;42.83
65470;DHT22;52067;50.710;14.492;2022-07-10T15:30:30;19.49;48.14
65470;DHT22;52067;50.710;14.492;2022-07-10T15:32:55;22.12;41.91
65470;DHT22;52067;50.710;14.492;2022-07-10T15:35:21;21.22;43.20
65470;DHT22;52067;50.710;14.492;2022-07-10T15:37:49;19.80;46.91
65470;DHT22;52067;50.710;14.492;2022-07-10T15:40:14;20.75;44.93
65470;DHT22;52067;50.710;14.492;2022-07-10T15:42:40;19.86;48.42
65470;DHT22;52067;50.710;14.492;2022-07-10T15:45:06;20.61;46.47
65470;DHT22;52067;50.710;14.492;2022-07-10T15:47:31;21.40;42.32